Time;durP1;ratioP1;P1;durP2;ratioP2;P2;SDS_P1;SDS_P2;PMS_P1;PMS_P2;Temp;Humidity;BMP_temperature;BMP_pressure;BME280_temperature;BME280_humidity;BME280_pressure;Samples;Min_cycle;Max_cycle;Signal;HPM_P1;HPM_P2
2022/01/02 00:00:33;;;;;;;6.50;4.28;;;10.70;99.90;;;;;;5090529;28;20051;-67
2022/01/02 00:03:03;;;;;;;7.35;4.30;;;10.60;99.90;;;;;;5088439;28;20071;-67
2022/01/02 00:05:32;;;;;;;7.18;4.15;;;10.50;99.90;;;;;;5090217;28;20028;-67
2022/01/02 00:08:04;;;;;;;8.10;4.53;;;10.50;99.90;;;;;;5088649;28;20028;-67
2022/01/02 00:10:33;;;;;;;8.38;4.50;;;10.40;99.90;;;;;;5089263;28;20450;-67
2022/01/02 00:13:00;;;;;;;7.55;4.68;;;10.30;99.90;;;;;;5086392;28;20028;-67
2022/01/02 00:15:26;;;;;;;6.75;3.75;;;10.30;99.90;;;;;;5076804;28;20020;-68
2022/01/02 00:17:54;;;;;;;6.78;3.72;;;10.20;99.90;;;;;;5075007;28;20025;-67
2022/01/02 00:20:36;;;;;;;7.95;4.18;;;10.10;99.90;;;;;;5077541;28;20032;-66
2022/01/02 00:23:06;;;;;;;8.15;4.32;;;10.00;99.90;;;;;;5075203;28;20071;-68
2022/01/02 00:25:38;;;;;;;8.85;4.97;;;9.90;99.90;;;;;;5076644;28;20414;-67
2022/01/02 00:28:05;;;;;;;7.20;5.05;;;9.90;99.90;;;;;;5076355;28;20016;-67
2022/01/02 00:30:32;;;;;;;9.25;4.80;;;9.80;99.90;;;;;;5076555;28;20473;-67
2022/01/02 00:32:59;;;;;;;10.82;6.55;;;9.70;99.90;;;;;;5076508;28;20052;-67
2022/01/02 00:35:24;;;;;;;12.30;5.55;;;9.70;99.90;;;;;;5074693;28;20028;-67
2022/01/02 00:37:50;;;;;;;7.80;5.40;;;9.90;99.90;;;;;;5076385;28;20032;-67
2022/01/02 00:40:15;;;;;;;8.38;5.10;;;10.20;99.90;;;;;;5076401;28;20028;-67
2022/01/02 00:42:42;;;;;;;8.20;4.82;;;10.40;99.90;;;;;;5076262;28;20469;-67
2022/01/02 00:45:24;;;;;;;7.18;4.32;;;10.50;99.90;;;;;;5074822;28;20149;-67
2022/01/02 00:48:13;;;;;;;9.60;4.50;;;10.60;99.90;;;;;;5074770;28;20020;-67
2022/01/02 00:50:44;;;;;;;8.80;4.40;;;10.80;99.90;;;;;;5074285;28;20429;-67
2022/01/02 00:53:10;;;;;;;6.05;3.80;;;11.10;99.90;;;;;;5057626;28;20020;-67
2022/01/02 00:55:36;;;;;;;7.53;3.97;;;11.10;99.90;;;;;;5075522;28;20016;-67
2022/01/02 00:58:05;;;;;;;6.90;4.05;;;11.10;99.90;;;;;;5057603;28;20035;-67
2022/01/02 01:00:32;;;;;;;6.35;3.85;;;11.10;99.90;;;;;;5057746;28;20029;-67
2022/01/02 01:03:05;;;;;;;9.25;4.18;;;11.20;99.90;;;;;;5074010;28;20051;-67
2022/01/02 01:05:32;;;;;;;7.18;4.07;;;11.10;99.90;;;;;;5074463;28;20108;-67
2022/01/02 01:08:01;;;;;;;9.05;4.53;;;11.00;99.90;;;;;;5075550;28;20028;-67
2022/01/02 01:10:31;;;;;;;7.03;4.22;;;10.90;99.90;;;;;;5074665;28;20048;-67
2022/01/02 01:13:00;;;;;;;5.63;4.35;;;10.80;99.90;;;;;;5075475;28;20021;-67
2022/01/02 01:15:28;;;;;;;7.78;4.40;;;10.80;99.90;;;;;;5058387;28;20032;-67
2022/01/02 01:17:56;;;;;;;7.25;4.43;;;10.70;99.90;;;;;;5057269;28;20063;-67
2022/01/02 01:20:24;;;;;;;7.75;3.92;;;10.70;99.90;;;;;;5075625;28;20032;-67
2022/01/02 01:22:50;;;;;;;7.88;5.00;;;10.70;99.90;;;;;;5075429;28;20031;-66
2022/01/02 01:25:18;;;;;;;7.10;4.55;;;10.70;99.90;;;;;;5073556;28;20024;-67
2022/01/02 01:27:45;;;;;;;8.00;4.45;;;10.90;99.90;;;;;;5073601;28;20024;-67
2022/01/02 01:30:12;;;;;;;7.57;4.25;;;11.20;99.90;;;;;;5074232;28;20039;-67
2022/01/02 01:32:38;;;;;;;8.48;4.18;;;11.30;99.90;;;;;;5075072;28;20024;-67
2022/01/02 01:35:06;;;;;;;8.77;4.30;;;11.40;99.90;;;;;;5074186;28;20050;-66
2022/01/02 01:37:32;;;;;;;5.88;3.88;;;11.50;99.90;;;;;;5057399;28;20459;-67
2022/01/02 01:39:58;;;;;;;6.10;4.03;;;11.60;99.90;;;;;;5074893;28;20055;-67
2022/01/02 01:42:36;;;;;;;8.98;4.38;;;11.60;99.90;;;;;;5075053;28;20074;-67
2022/01/02 01:48:02;;;;;;;5.85;4.20;;;11.70;99.90;;;;;;5112260;27;20743;-68
2022/01/02 01:50:31;;;;;;;12.82;4.95;;;11.80;99.90;;;;;;5111990;28;20028;-67
2022/01/02 01:52:57;;;;;;;9.80;4.88;;;11.80;99.90;;;;;;5111897;28;20048;-67
2022/01/02 01:55:22;;;;;;;6.13;4.40;;;11.80;99.90;;;;;;5110750;28;20051;-67
2022/01/02 01:57:49;;;;;;;7.15;4.22;;;11.90;99.90;;;;;;5111832;28;20069;-66
2022/01/02 02:00:17;;;;;;;8.77;4.10;;;11.90;99.90;;;;;;5111799;28;20026;-67
2022/01/02 02:02:44;;;;;;;9.43;3.92;;;12.00;99.90;;;;;;5111461;28;20073;-67
2022/01/02 02:05:10;;;;;;;7.53;4.28;;;12.00;99.90;;;;;;5111691;28;20077;-67
2022/01/02 02:07:41;;;;;;;8.57;4.43;;;12.00;99.90;;;;;;5092989;28;20388;-67
2022/01/02 02:10:13;;;;;;;9.27;4.65;;;12.00;99.90;;;;;;5110210;28;20016;-67
2022/01/02 02:12:41;;;;;;;10.07;4.50;;;12.00;99.90;;;;;;5094007;28;20430;-67
2022/01/02 02:15:09;;;;;;;10.38;4.35;;;12.00;99.90;;;;;;5110088;28;20476;-66
2022/01/02 02:17:34;;;;;;;9.45;4.43;;;12.00;99.90;;;;;;5111477;28;20101;-67
2022/01/02 02:20:23;;;;;;;7.45;4.50;;;12.00;99.90;;;;;;5109985;28;20023;-67
2022/01/02 02:22:52;;;;;;;7.50;5.18;;;12.10;99.90;;;;;;5110811;28;20031;-67
2022/01/02 02:25:21;;;;;;;10.05;5.15;;;12.10;99.90;;;;;;5110772;28;20031;-67
2022/01/02 02:27:52;;;;;;;9.02;5.05;;;12.10;99.90;;;;;;5111221;28;20020;-67
2022/01/02 02:30:19;;;;;;;8.55;4.97;;;12.10;99.90;;;;;;5111285;28;20019;-67
2022/01/02 02:32:45;;;;;;;7.20;5.13;;;12.10;99.90;;;;;;5109474;28;20034;-67
2022/01/02 02:35:10;;;;;;;7.85;5.07;;;12.10;99.90;;;;;;5110877;28;20028;-66
2022/01/02 02:37:42;;;;;;;6.65;4.72;;;12.00;99.90;;;;;;5111082;28;20419;-66
2022/01/02 02:40:09;;;;;;;8.35;4.50;;;12.10;99.90;;;;;;5110821;28;20031;-66
2022/01/02 02:42:47;;;;;;;7.75;4.43;;;12.10;99.90;;;;;;5110430;28;20020;-67
2022/01/02 02:51:11;;;;;;;7.35;4.55;;;12.10;99.90;;;;;;5110181;28;20422;-67
2022/01/02 02:53:41;;;;;;;8.52;4.00;;;12.10;99.90;;;;;;5109656;28;20024;-68
2022/01/02 02:56:19;;;;;;;10.75;5.13;;;12.00;99.90;;;;;;5109046;28;20073;-68
2022/01/02 02:58:49;;;;;;;6.45;3.95;;;12.00;99.90;;;;;;5098586;28;20020;-67
2022/01/02 03:01:17;;;;;;;6.78;4.13;;;12.00;99.90;;;;;;5095666;28;20017;-67
2022/01/02 03:03:44;;;;;;;11.98;4.53;;;12.00;99.90;;;;;;5095196;28;20020;-67
2022/01/02 03:06:10;;;;;;;10.45;4.13;;;11.80;99.90;;;;;;5095145;28;20473;-67
2022/01/02 03:08:37;;;;;;;7.50;3.70;;;11.80;99.90;;;;;;5095453;28;20020;-66
2022/01/02 03:11:07;;;;;;;8.15;4.18;;;11.90;99.90;;;;;;5096610;28;20024;-67
2022/01/02 03:13:33;;;;;;;12.70;4.45;;;11.90;99.90;;;;;;5096820;28;20024;-67
2022/01/02 03:15:59;;;;;;;8.38;4.13;;;11.90;99.90;;;;;;5078672;28;20032;-67
2022/01/02 03:18:24;;;;;;;10.20;4.13;;;11.90;99.90;;;;;;5078075;28;20028;-67
2022/01/02 03:20:50;;;;;;;10.25;4.00;;;11.90;99.90;;;;;;5078035;28;20419;-67
2022/01/02 03:23:15;;;;;;;11.60;3.63;;;11.90;99.90;;;;;;5096076;28;20094;-67
2022/01/02 03:25:41;;;;;;;7.15;3.80;;;11.80;99.90;;;;;;5096219;28;20028;-67
2022/01/02 03:28:06;;;;;;;6.95;3.92;;;11.70;99.90;;;;;;5095117;28;20050;-67
2022/01/02 03:30:32;;;;;;;9.27;3.78;;;11.70;99.90;;;;;;5094648;28;20054;-67
2022/01/02 03:32:57;;;;;;;10.43;3.90;;;11.80;99.90;;;;;;5096433;28;20033;-67
2022/01/02 03:35:23;;;;;;;9.50;4.10;;;11.70;99.90;;;;;;5077769;28;20016;-67
2022/01/02 03:37:50;;;;;;;8.10;3.83;;;11.70;99.90;;;;;;5096097;28;20024;-68
2022/01/02 03:40:16;;;;;;;8.52;4.40;;;11.80;99.90;;;;;;5095169;28;20051;-67
2022/01/02 03:42:41;;;;;;;8.00;3.80;;;11.80;99.90;;;;;;5094761;28;20063;-67
2022/01/02 03:45:07;;;;;;;9.55;3.67;;;11.90;99.90;;;;;;5077499;28;20031;-67
2022/01/02 03:47:33;;;;;;;9.82;3.58;;;12.00;99.90;;;;;;5094243;28;20079;-67
2022/01/02 03:49:58;;;;;;;8.80;4.15;;;12.10;99.90;;;;;;5094698;28;20050;-67
2022/01/02 03:52:25;;;;;;;9.63;4.38;;;12.00;99.90;;;;;;5094243;28;20350;-67
2022/01/02 03:54:50;;;;;;;10.10;4.68;;;12.00;99.90;;;;;;5077906;28;20030;-67
2022/01/02 03:57:16;;;;;;;9.43;3.90;;;12.00;99.90;;;;;;5095958;28;20020;-67
2022/01/02 03:59:41;;;;;;;8.57;3.70;;;11.90;99.90;;;;;;5095901;28;20032;-67
2022/01/02 04:02:07;;;;;;;12.02;4.05;;;11.90;99.90;;;;;;5095888;28;20024;-67
2022/01/02 04:04:32;;;;;;;7.78;3.78;;;11.80;99.90;;;;;;5077671;28;20028;-67
2022/01/02 04:06:58;;;;;;;8.13;3.60;;;11.80;99.90;;;;;;5077037;28;20035;-67
2022/01/02 04:09:23;;;;;;;10.25;4.22;;;11.80;99.90;;;;;;5094253;28;20024;-67
2022/01/02 04:11:49;;;;;;;11.82;3.80;;;11.80;99.90;;;;;;5094149;28;20028;-67
2022/01/02 04:14:14;;;;;;;8.70;4.25;;;11.70;99.90;;;;;;5094202;28;20029;-67
2022/01/02 04:16:40;;;;;;;11.73;4.63;;;11.70;99.90;;;;;;5095054;28;20039;-67
2022/01/02 04:19:06;;;;;;;11.95;4.20;;;11.70;99.90;;;;;;5093761;28;20058;-67
2022/01/02 04:21:31;;;;;;;14.02;4.85;;;11.60;99.90;;;;;;5076818;28;20536;-67
2022/01/02 04:23:57;;;;;;;11.20;5.00;;;11.60;99.90;;;;;;5095201;28;20077;-67
2022/01/02 04:26:23;;;;;;;11.45;5.15;;;11.60;99.90;;;;;;5095316;28;20154;-67
2022/01/02 04:28:48;;;;;;;10.90;4.95;;;11.60;99.90;;;;;;5093934;28;20043;-67
2022/01/02 04:31:14;;;;;;;13.25;4.30;;;11.50;99.90;;;;;;5095025;28;20350;-67
2022/01/02 04:33:40;;;;;;;11.48;4.65;;;11.60;99.90;;;;;;5095014;28;20495;-67
2022/01/02 04:36:05;;;;;;;11.15;4.68;;;11.60;99.90;;;;;;5094033;28;20391;-67
2022/01/02 04:38:31;;;;;;;16.25;4.57;;;11.50;99.90;;;;;;5093359;28;20028;-68
2022/01/02 04:40:57;;;;;;;12.95;4.47;;;11.50;99.90;;;;;;5094890;28;20093;-67
2022/01/02 04:43:23;;;;;;;11.77;4.93;;;11.50;99.90;;;;;;5095101;28;20107;-67
2022/01/02 04:45:48;;;;;;;6.75;4.40;;;11.40;99.90;;;;;;5094703;28;20576;-67
2022/01/02 04:48:14;;;;;;;12.25;4.40;;;11.40;99.90;;;;;;5076241;28;20031;-67
2022/01/02 04:50:40;;;;;;;11.15;4.28;;;11.40;99.90;;;;;;5093245;28;20107;-67
2022/01/02 04:53:05;;;;;;;12.00;5.05;;;11.40;99.90;;;;;;5093474;28;20020;-65
2022/01/02 04:55:31;;;;;;;13.98;4.57;;;11.40;99.90;;;;;;5094578;28;20017;-68
2022/01/02 04:57:57;;;;;;;13.25;4.53;;;11.40;99.90;;;;;;5093374;28;20024;-67
2022/01/02 05:00:22;;;;;;;11.07;5.00;;;11.40;99.90;;;;;;5094764;28;20507;-67
2022/01/02 05:02:49;;;;;;;9.00;4.40;;;11.40;99.90;;;;;;5094474;28;20035;-67
2022/01/02 05:05:16;;;;;;;11.95;4.47;;;11.40;99.90;;;;;;5092920;28;20027;-66
2022/01/02 05:07:42;;;;;;;9.05;4.72;;;11.50;99.90;;;;;;5093324;28;20111;-67
2022/01/02 05:10:08;;;;;;;12.32;5.18;;;11.50;99.90;;;;;;5076496;28;20116;-66
2022/01/02 05:12:34;;;;;;;18.17;4.95;;;11.50;99.90;;;;;;5094600;28;20024;-67
2022/01/02 05:15:00;;;;;;;13.43;4.85;;;11.50;99.90;;;;;;5094570;28;20024;-67
2022/01/02 05:17:26;;;;;;;15.30;4.78;;;11.50;99.90;;;;;;5094242;28;20024;-68
2022/01/02 05:19:51;;;;;;;9.57;4.47;;;11.50;99.90;;;;;;5094476;28;20461;-68
2022/01/02 05:22:17;;;;;;;14.85;5.05;;;11.50;99.90;;;;;;5093934;28;20024;-66
2022/01/02 05:24:42;;;;;;;14.05;5.38;;;11.50;99.90;;;;;;5094368;28;20036;-67
2022/01/02 05:27:08;;;;;;;14.20;4.95;;;11.50;99.90;;;;;;5092741;28;20028;-66
2022/01/02 05:29:33;;;;;;;15.02;5.07;;;11.40;99.90;;;;;;5092504;28;20024;-66
2022/01/02 05:31:59;;;;;;;14.25;4.78;;;11.50;99.90;;;;;;5094048;28;20107;-67
2022/01/02 05:34:24;;;;;;;13.18;4.63;;;11.50;99.90;;;;;;5092455;28;20378;-67
2022/01/02 05:36:50;;;;;;;10.55;4.22;;;11.50;99.90;;;;;;5094232;28;20495;-66
2022/01/02 05:39:20;;;;;;;13.18;5.28;;;11.60;99.90;;;;;;5093694;28;20032;-67
2022/01/02 05:41:47;;;;;;;12.13;4.80;;;11.60;99.90;;;;;;5093229;28;20027;-66
2022/01/02 05:44:13;;;;;;;14.32;5.22;;;11.60;99.90;;;;;;5075459;28;20439;-67
2022/01/02 05:46:39;;;;;;;15.43;4.43;;;11.70;99.90;;;;;;5092316;28;20036;-67
2022/01/02 05:49:05;;;;;;;13.00;4.85;;;11.70;99.90;;;;;;5094126;28;20055;-66
2022/01/02 05:51:31;;;;;;;17.45;5.00;;;11.70;99.90;;;;;;5093793;28;20027;-67
2022/01/02 05:53:56;;;;;;;11.38;4.70;;;11.70;99.90;;;;;;5094118;28;20028;-67
2022/01/02 05:56:22;;;;;;;17.05;4.60;;;11.80;99.90;;;;;;5094067;28;20020;-67
2022/01/02 05:58:47;;;;;;;15.05;4.95;;;11.90;99.90;;;;;;5094058;28;20465;-67
2022/01/02 06:01:13;;;;;;;10.55;4.10;;;11.90;99.90;;;;;;5092582;28;20111;-67
2022/01/02 06:03:39;;;;;;;13.23;4.72;;;12.00;99.90;;;;;;5093712;28;20032;-67
2022/01/02 06:06:04;;;;;;;12.27;4.30;;;12.00;99.90;;;;;;5092675;28;20024;-67
2022/01/02 06:08:30;;;;;;;11.77;4.65;;;11.90;99.90;;;;;;5093701;28;20536;-67
2022/01/02 06:10:56;;;;;;;13.18;4.75;;;12.00;99.90;;;;;;5092139;28;20492;-67
2022/01/02 06:13:21;;;;;;;17.27;4.40;;;12.00;99.90;;;;;;5092450;28;20381;-67
2022/01/02 06:15:47;;;;;;;12.70;4.88;;;12.00;99.90;;;;;;5092477;28;20024;-67
2022/01/02 06:18:12;;;;;;;14.25;4.82;;;12.10;99.90;;;;;;5092716;28;20020;-67
2022/01/02 06:20:39;;;;;;;14.68;4.32;;;12.10;99.90;;;;;;5093831;28;20020;-67
2022/01/02 06:23:05;;;;;;;13.32;4.50;;;12.10;99.90;;;;;;5093834;28;20093;-67
2022/01/02 06:25:30;;;;;;;12.80;5.55;;;12.10;99.90;;;;;;5092015;28;20063;-67
2022/01/02 06:27:56;;;;;;;14.60;5.50;;;12.20;99.90;;;;;;5092767;28;20373;-67
2022/01/02 06:30:21;;;;;;;15.68;4.93;;;12.10;99.90;;;;;;5075638;28;20024;-67
2022/01/02 06:32:54;;;;;;;19.90;6.28;;;12.20;99.90;;;;;;5092530;28;20026;-67
2022/01/02 06:35:21;;;;;;;17.83;5.47;;;12.10;99.90;;;;;;5097592;28;20027;-67
2022/01/02 06:37:46;;;;;;;11.35;5.13;;;12.10;99.90;;;;;;5078818;28;20031;-67
2022/01/02 06:40:12;;;;;;;12.45;4.60;;;12.00;99.90;;;;;;5097481;28;20032;-67
2022/01/02 06:42:37;;;;;;;11.05;4.70;;;12.00;99.90;;;;;;5097431;28;20082;-67
2022/01/02 06:45:03;;;;;;;18.60;5.07;;;12.00;99.90;;;;;;5097101;28;20028;-67
2022/01/02 06:47:29;;;;;;;14.27;4.07;;;12.10;99.90;;;;;;5096700;28;20042;-67
2022/01/02 06:49:55;;;;;;;15.73;4.80;;;12.10;99.90;;;;;;5095491;28;20427;-67
2022/01/02 06:52:20;;;;;;;13.15;4.80;;;12.00;99.90;;;;;;5096275;28;20028;-66
2022/01/02 06:54:45;;;;;;;16.98;4.97;;;12.00;99.90;;;;;;5096032;28;20028;-67
2022/01/02 06:57:11;;;;;;;14.98;4.85;;;12.00;99.90;;;;;;5078767;28;20035;-67
2022/01/02 06:59:37;;;;;;;12.90;4.70;;;12.00;99.90;;;;;;5096848;28;20039;-68
2022/01/02 07:02:02;;;;;;;10.07;5.03;;;11.90;99.90;;;;;;5097055;28;20020;-67
2022/01/02 07:04:28;;;;;;;15.60;5.65;;;11.80;99.90;;;;;;5096929;28;20028;-67
2022/01/02 07:06:53;;;;;;;11.50;4.90;;;11.80;99.90;;;;;;5096925;28;20111;-67
2022/01/02 07:09:19;;;;;;;12.25;4.38;;;11.80;99.90;;;;;;5096961;28;20480;-67
2022/01/02 07:11:44;;;;;;;15.25;5.85;;;11.70;99.90;;;;;;5095187;28;20032;-67
2022/01/02 07:14:10;;;;;;;17.27;5.95;;;11.70;99.90;;;;;;5095657;28;20472;-67
2022/01/02 07:16:35;;;;;;;17.45;6.25;;;11.70;99.90;;;;;;5078972;28;20032;-67
2022/01/02 07:19:01;;;;;;;24.30;7.30;;;11.70;99.90;;;;;;5095592;28;20095;-67
2022/01/02 07:21:26;;;;;;;17.02;6.88;;;11.60;99.90;;;;;;5096157;28;20028;-67
2022/01/02 07:23:54;;;;;;;19.67;7.05;;;11.60;99.90;;;;;;5095486;28;20457;-67
2022/01/02 07:26:20;;;;;;;20.88;7.63;;;11.60;99.90;;;;;;5095123;28;20031;-67
2022/01/02 07:28:45;;;;;;;12.40;7.20;;;11.50;99.90;;;;;;5096004;28;20024;-67
2022/01/02 07:31:11;;;;;;;21.38;7.43;;;11.60;99.90;;;;;;5095337;28;20051;-67
2022/01/02 07:33:36;;;;;;;17.17;7.80;;;11.50;99.90;;;;;;5077826;28;20107;-67
2022/01/02 07:36:02;;;;;;;20.98;7.47;;;11.50;99.90;;;;;;5096394;28;20024;-67
2022/01/02 07:38:27;;;;;;;16.67;7.00;;;11.50;99.90;;;;;;5094968;28;20038;-66
2022/01/02 07:40:53;;;;;;;16.55;6.00;;;11.50;99.90;;;;;;5095170;28;20477;-67
2022/01/02 07:43:19;;;;;;;13.82;5.10;;;11.50;99.90;;;;;;5094873;28;20028;-67
2022/01/02 07:45:44;;;;;;;19.88;5.57;;;11.50;99.90;;;;;;5077145;28;20383;-67
2022/01/02 07:48:10;;;;;;;19.77;6.35;;;11.60;99.90;;;;;;5094393;28;20469;-67
2022/01/02 07:50:35;;;;;;;16.30;6.07;;;11.60;99.90;;;;;;5077519;28;20045;-67
2022/01/02 07:53:01;;;;;;;18.00;5.97;;;11.60;99.90;;;;;;5094638;28;20054;-67
2022/01/02 07:55:26;;;;;;;19.83;5.60;;;11.70;99.90;;;;;;5095443;28;20028;-67
2022/01/02 07:57:52;;;;;;;16.58;5.57;;;11.70;99.90;;;;;;5095439;28;20107;-67
2022/01/02 08:00:18;;;;;;;15.70;5.55;;;11.60;99.90;;;;;;5094513;28;20039;-67
2022/01/02 08:02:44;;;;;;;14.50;5.30;;;11.60;99.90;;;;;;5094444;28;20028;-66
2022/01/02 08:05:10;;;;;;;15.93;4.80;;;11.70;99.90;;;;;;5095324;28;20043;-67
2022/01/02 08:07:38;;;;;;;16.02;5.13;;;11.70;99.90;;;;;;5094601;28;20027;-67
2022/01/02 08:10:04;;;;;;;14.98;5.30;;;11.70;99.90;;;;;;5095491;28;20024;-67
2022/01/02 08:12:29;;;;;;;12.02;4.70;;;11.80;99.90;;;;;;5094693;28;20024;-67
2022/01/02 08:14:55;;;;;;;17.05;4.60;;;11.90;99.90;;;;;;5095662;28;20023;-67
2022/01/02 08:17:21;;;;;;;16.25;4.72;;;11.90;99.90;;;;;;5095643;28;20024;-67
2022/01/02 08:19:46;;;;;;;13.82;5.00;;;12.00;99.90;;;;;;5094615;28;20465;-67
2022/01/02 08:22:11;;;;;;;14.85;4.45;;;12.10;99.90;;;;;;5093993;28;20081;-67
2022/01/02 08:24:37;;;;;;;16.65;4.80;;;12.20;99.90;;;;;;5093654;28;20024;-67
2022/01/02 08:27:03;;;;;;;16.48;4.55;;;12.30;99.90;;;;;;5093658;28;20036;-67
2022/01/02 08:29:28;;;;;;;17.20;5.30;;;12.30;99.90;;;;;;5093956;28;20024;-67
2022/01/02 08:31:53;;;;;;;12.98;4.22;;;12.30;99.90;;;;;;5094172;28;20461;-67
2022/01/02 08:34:19;;;;;;;15.43;4.65;;;12.30;99.90;;;;;;5095275;28;20107;-68
2022/01/02 08:36:44;;;;;;;17.40;4.32;;;12.30;99.90;;;;;;5095257;28;20032;-67
2022/01/02 08:39:10;;;;;;;20.42;5.60;;;12.40;99.90;;;;;;5094943;28;20028;-68
2022/01/02 08:41:35;;;;;;;15.63;4.28;;;12.40;99.90;;;;;;5095149;28;20459;-67
2022/01/02 08:44:01;;;;;;;14.88;4.57;;;12.30;99.90;;;;;;5093384;28;20028;-67
2022/01/02 08:46:26;;;;;;;16.02;4.45;;;12.30;99.90;;;;;;5076083;28;20048;-67
2022/01/02 08:48:52;;;;;;;16.75;5.10;;;12.30;99.90;;;;;;5076302;28;20385;-67
2022/01/02 08:51:17;;;;;;;12.98;4.78;;;12.30;99.90;;;;;;5094967;28;20027;-68
2022/01/02 08:53:43;;;;;;;14.93;4.75;;;12.40;99.90;;;;;;5094370;28;20028;-67
2022/01/02 08:56:09;;;;;;;12.07;4.13;;;12.30;99.90;;;;;;5092599;28;20058;-67
2022/01/02 08:58:34;;;;;;;11.98;4.72;;;12.30;99.90;;;;;;5094330;28;20028;-67
2022/01/02 09:01:00;;;;;;;12.02;4.20;;;12.30;99.90;;;;;;5093009;28;20439;-67
2022/01/02 09:03:26;;;;;;;15.63;5.00;;;12.30;99.90;;;;;;5094463;28;20111;-67
2022/01/02 09:05:52;;;;;;;18.45;4.53;;;12.30;99.90;;;;;;5094364;28;20399;-67
2022/01/02 09:08:17;;;;;;;15.60;4.93;;;12.30;99.90;;;;;;5094364;28;20020;-66
2022/01/02 09:10:43;;;;;;;10.95;4.20;;;12.30;99.90;;;;;;5093512;28;20063;-67
2022/01/02 09:13:09;;;;;;;8.65;3.72;;;12.40;99.90;;;;;;5094346;28;20374;-67
2022/01/02 09:15:34;;;;;;;14.45;5.03;;;12.50;99.90;;;;;;5093417;28;20012;-67
2022/01/02 09:18:01;;;;;;;12.25;4.30;;;12.40;99.90;;;;;;5094558;28;20370;-68
2022/01/02 09:20:26;;;;;;;12.75;4.43;;;12.40;99.90;;;;;;5093371;28;20016;-67
2022/01/02 09:22:52;;;;;;;11.02;4.68;;;12.30;99.90;;;;;;5094465;28;20469;-67
2022/01/02 09:25:18;;;;;;;15.13;4.47;;;12.30;99.90;;;;;;5092647;28;20523;-67
2022/01/02 09:27:44;;;;;;;11.55;4.22;;;12.40;99.90;;;;;;5094325;28;20409;-67
2022/01/02 09:30:11;;;;;;;10.13;3.72;;;12.50;99.90;;;;;;5094452;28;20042;-67
2022/01/02 09:32:37;;;;;;;12.15;3.70;;;12.70;99.90;;;;;;5092862;28;20020;-67
2022/01/02 09:35:04;;;;;;;11.63;4.20;;;12.70;99.90;;;;;;5092821;28;20032;-67
2022/01/02 09:37:30;;;;;;;16.48;4.40;;;12.80;99.90;;;;;;5094022;28;20413;-67
2022/01/02 09:39:56;;;;;;;9.57;3.78;;;12.70;99.90;;;;;;5092842;28;20026;-67
2022/01/02 09:42:21;;;;;;;10.55;3.97;;;12.70;99.90;;;;;;5093948;28;20384;-67
2022/01/02 09:44:47;;;;;;;15.40;4.07;;;12.70;99.90;;;;;;5092402;28;20024;-67
2022/01/02 09:47:17;;;;;;;14.05;4.35;;;12.60;99.90;;;;;;5092392;28;20096;-67
2022/01/02 09:49:42;;;;;;;12.02;3.95;;;12.60;99.90;;;;;;5092324;28;20020;-67
2022/01/02 09:52:08;;;;;;;10.85;3.85;;;12.60;99.90;;;;;;5093610;28;20031;-67
2022/01/02 09:54:34;;;;;;;12.15;3.85;;;12.60;99.90;;;;;;5093123;28;20020;-67
2022/01/02 09:57:01;;;;;;;12.38;3.70;;;12.60;99.90;;;;;;5075718;28;20074;-67
2022/01/02 09:59:26;;;;;;;13.45;4.20;;;12.80;99.90;;;;;;5092243;28;20024;-67
2022/01/02 10:01:52;;;;;;;9.90;3.38;;;12.90;99.90;;;;;;5094039;28;20024;-67
2022/01/02 10:04:35;;;;;;;7.47;3.00;;;13.00;99.90;;;;;;5093451;28;20028;-67
2022/01/02 10:07:00;;;;;;;9.23;2.90;;;13.20;99.90;;;;;;5093955;28;20024;-67
2022/01/02 10:09:36;;;;;;;5.97;2.92;;;13.30;99.90;;;;;;5095935;28;20043;-67
2022/01/02 10:12:26;;;;;;;8.23;2.97;;;13.50;99.90;;;;;;5096667;28;20016;-67
2022/01/02 10:15:13;;;;;;;6.65;2.78;;;13.60;99.90;;;;;;5096161;28;20027;-67
2022/01/02 10:20:43;;;;;;;10.05;3.13;;;13.50;99.90;;;;;;5091914;28;20406;-68
2022/01/02 10:23:24;;;;;;;5.82;2.72;;;13.60;99.90;;;;;;5091333;28;20051;-68
2022/01/02 10:26:00;;;;;;;7.10;2.80;;;13.50;99.90;;;;;;5090136;28;20028;-67
2022/01/02 10:28:32;;;;;;;6.40;2.67;;;13.50;99.90;;;;;;5089660;28;20083;-67
2022/01/02 10:31:15;;;;;;;7.72;2.40;;;13.50;99.90;;;;;;5089787;28;20103;-67
2022/01/02 10:33:54;;;;;;;5.20;2.58;;;13.50;99.90;;;;;;5090311;28;20021;-67
2022/01/02 10:36:38;;;;;;;6.75;2.72;;;13.50;99.90;;;;;;5091090;28;20032;-67
2022/01/02 10:39:14;;;;;;;7.00;2.70;;;13.60;99.90;;;;;;5072741;28;20047;-67
2022/01/02 10:41:45;;;;;;;5.97;2.90;;;13.60;99.90;;;;;;5090096;28;20107;-67
2022/01/02 10:44:32;;;;;;;9.57;3.28;;;13.60;99.90;;;;;;5091229;28;20163;-67
2022/01/02 10:47:20;;;;;;;5.07;2.78;;;13.60;99.90;;;;;;5089321;28;20074;-67
2022/01/02 10:49:47;;;;;;;6.68;3.10;;;13.50;99.90;;;;;;5072488;28;20033;-67
2022/01/02 10:52:18;;;;;;;4.47;2.92;;;13.40;99.90;;;;;;5072607;28;20438;-67
2022/01/02 10:54:43;;;;;;;5.15;3.35;;;13.40;99.90;;;;;;5090722;28;20043;-67
2022/01/02 10:57:09;;;;;;;5.43;3.03;;;13.40;99.90;;;;;;5089969;28;20457;-67
2022/01/02 10:59:37;;;;;;;5.38;2.75;;;13.50;99.90;;;;;;5072121;28;20465;-67
2022/01/02 11:02:03;;;;;;;7.93;3.20;;;13.60;99.90;;;;;;5090590;28;20027;-67
2022/01/02 11:04:30;;;;;;;4.63;3.00;;;13.40;99.90;;;;;;5072237;28;20398;-67
2022/01/02 11:06:59;;;;;;;5.82;3.35;;;13.20;99.90;;;;;;5089330;28;20031;-67
2022/01/02 11:09:25;;;;;;;8.55;3.42;;;12.90;99.90;;;;;;5089272;28;20032;-67
2022/01/02 11:11:51;;;;;;;8.45;3.75;;;12.60;99.90;;;;;;5089499;28;20029;-67
2022/01/02 11:14:16;;;;;;;6.10;3.97;;;12.60;99.90;;;;;;5089151;28;20028;-67
2022/01/02 11:16:42;;;;;;;6.28;3.47;;;12.50;99.90;;;;;;5090256;28;20078;-67
2022/01/02 11:19:11;;;;;;;5.47;3.40;;;12.70;99.90;;;;;;5089726;28;20045;-67
2022/01/02 11:21:40;;;;;;;9.60;3.72;;;13.60;99.90;;;;;;5089096;28;20024;-67
2022/01/02 11:24:19;;;;;;;6.05;3.90;;;13.90;99.90;;;;;;5088738;28;20024;-67
2022/01/02 11:26:54;;;;;;;6.43;3.55;;;14.20;99.90;;;;;;5072219;28;20025;-67
2022/01/02 11:29:26;;;;;;;7.72;3.65;;;14.10;99.90;;;;;;5090385;28;20035;-67
2022/01/02 11:31:52;;;;;;;6.83;3.57;;;14.00;99.90;;;;;;5076244;28;20520;-67
2022/01/02 11:34:33;;;;;;;5.70;3.47;;;13.70;99.90;;;;;;5076750;28;20259;-67
2022/01/02 11:37:19;;;;;;;8.07;3.38;;;13.50;99.90;;;;;;5058255;28;20085;-67
2022/01/02 11:39:56;;;;;;;4.88;3.70;;;13.60;99.90;;;;;;5075201;28;20031;-67
2022/01/02 11:45:34;;;;;;;7.38;3.78;;;13.50;99.90;;;;;;5112258;27;20416;-66
2022/01/02 11:48:00;;;;;;;6.35;4.05;;;13.50;99.90;;;;;;5110102;28;20066;-67
2022/01/02 11:55:52;;;;;;;6.32;3.92;;;13.50;99.90;;;;;;5112265;27;20347;-68
2022/01/02 12:01:51;;;;;;;9.70;4.47;;;14.00;99.90;;;;;;5153233;27;20172;-67
2022/01/02 12:04:16;;;;;;;12.27;4.78;;;14.00;99.90;;;;;;5153086;27;20264;-66
2022/01/02 12:06:44;;;;;;;9.27;4.97;;;14.00;99.90;;;;;;5151913;27;20541;-67
2022/01/02 12:09:32;;;;;;;8.52;4.25;;;14.00;99.90;;;;;;5134239;27;20022;-67
2022/01/02 12:11:59;;;;;;;26.65;5.10;;;14.20;99.90;;;;;;5133866;27;20099;-67
2022/01/02 12:14:25;;;;;;;9.00;4.78;;;14.10;99.90;;;;;;5151482;27;20023;-67
2022/01/02 12:16:57;;;;;;;14.10;5.35;;;14.30;99.90;;;;;;5133820;27;20068;-67
2022/01/02 12:19:22;;;;;;;8.52;5.70;;;14.30;99.90;;;;;;5152738;27;20023;-68
2022/01/02 12:22:09;;;;;;;8.63;4.53;;;14.30;99.90;;;;;;5151341;27;20399;-67
2022/01/02 12:24:35;;;;;;;9.05;5.20;;;14.20;99.90;;;;;;5134176;27;20414;-67
2022/01/02 12:27:16;;;;;;;15.98;4.88;;;14.10;99.90;;;;;;5134195;27;20030;-67
2022/01/02 12:29:42;;;;;;;7.22;4.95;;;14.00;99.90;;;;;;5133972;27;20464;-67
2022/01/02 12:32:09;;;;;;;7.63;5.07;;;13.90;99.90;;;;;;5150855;27;20045;-67
2022/01/02 12:34:35;;;;;;;8.60;5.68;;;13.70;99.90;;;;;;5134018;27;20023;-68
2022/01/02 12:37:02;;;;;;;9.05;5.53;;;13.60;99.90;;;;;;5151046;27;20401;-68
2022/01/02 12:39:33;;;;;;;10.68;5.72;;;13.60;99.90;;;;;;5152386;27;20364;-67
2022/01/02 12:42:02;;;;;;;12.25;5.75;;;13.50;99.90;;;;;;5134221;27;20026;-68
2022/01/02 12:44:31;;;;;;;8.27;5.53;;;13.40;99.90;;;;;;5151288;27;20019;-68
2022/01/02 12:46:59;;;;;;;8.65;5.65;;;13.40;99.90;;;;;;5152331;27;20170;-68
2022/01/02 12:49:28;;;;;;;12.57;5.82;;;13.40;99.90;;;;;;5150444;27;20101;-68
2022/01/02 12:51:57;;;;;;;13.43;5.68;;;13.30;99.90;;;;;;5150762;27;20106;-67
2022/01/02 12:54:27;;;;;;;12.43;5.38;;;13.30;99.90;;;;;;5151929;27;20019;-67
2022/01/02 12:56:54;;;;;;;7.55;4.78;;;13.30;99.90;;;;;;5152103;27;20106;-67
2022/01/02 12:59:27;;;;;;;10.93;5.07;;;13.20;99.90;;;;;;5151656;27;20050;-67
2022/01/02 13:01:56;;;;;;;11.57;5.18;;;13.20;99.90;;;;;;5117068;27;20022;-67
2022/01/02 13:04:24;;;;;;;8.38;4.95;;;13.20;99.90;;;;;;5151995;27;20022;-67
2022/01/02 13:06:51;;;;;;;10.48;5.68;;;13.20;99.90;;;;;;5133144;27;20058;-67